sensor_id;sensor_type;location;lat;lon;timestamp;P1;durP1;ratioP1;P2;durP2;ratioP2
14320;SDS011;7244;47.364;8.464;2023-06-10T00:15:02;4;;;3;;
14320;SDS011;7244;47.364;8.464;2023-06-10T00:31:01;5;;;3;;
14320;SDS011;7244;47.364;8.464;2023-06-10T00:46:02;4;;;3;;
14320;SDS011;7244;47.364;8.464;2023-06-10T01:02:03;5;;;3;;
14320;SDS011;7244;47.364;8.464;2023-06-10T01:18:03;4;;;3;;
14320;SDS011;7244;47.364;8.464;2023-06-10T01:34:01;4;;;3;;
14320;SDS011;7244;47.364;8.464;2023-06-10T01:49:01;6;;;4;;
14320;SDS011;7244;47.364;8.464;2023-06-10T02:05:02;4;;;3;;
14320;SDS011;7244;47.364;8.464;2023-06-10T02:21:01;4;;;3;;
14320;SDS011;7244;47.364;8.464;2023-06-10T02:37:02;5;;;3;;
14320;SDS011;7244;47.364;8.464;2023-06-10T02:52:02;6;;;3;;
14320;SDS011;7244;47.364;8.464;2023-06-10T03:08:01;7;;;3;;
14320;SDS011;7244;47.364;8.464;2023-06-10T03:24:02;5;;;4;;
14320;SDS011;7244;47.364;8.464;2023-06-10T03:39:01;5;;;4;;
14320;SDS011;7244;47.364;8.464;2023-06-10T03:55:02;10;;;4;;
14320;SDS011;7244;47.364;8.464;2023-06-10T04:11:02;7;;;5;;
14320;SDS011;7244;47.364;8.464;2023-06-10T04:27:01;7;;;5;;
14320;SDS011;7244;47.364;8.464;2023-06-10T04:42:01;6;;;4;;
14320;SDS011;7244;47.364;8.464;2023-06-10T04:58:02;6;;;5;;
14320;SDS011;7244;47.364;8.464;2023-06-10T05:14:01;7;;;4;;
14320;SDS011;7244;47.364;8.464;2023-06-10T05:30:01;8;;;5;;
14320;SDS011;7244;47.364;8.464;2023-06-10T05:45:01;8;;;3;;
14320;SDS011;7244;47.364;8.464;2023-06-10T06:01:01;7;;;5;;
14320;SDS011;7244;47.364;8.464;2023-06-10T06:17:01;8;;;6;;
14320;SDS011;7244;47.364;8.464;2023-06-10T06:32:01;8;;;5;;
14320;SDS011;7244;47.364;8.464;2023-06-10T06:48:02;8;;;6;;
14320;SDS011;7244;47.364;8.464;2023-06-10T07:04:01;7;;;6;;
14320;SDS011;7244;47.364;8.464;2023-06-10T07:20:02;9;;;6;;
14320;SDS011;7244;47.364;8.464;2023-06-10T07:35:02;10;;;7;;
14320;SDS011;7244;47.364;8.464;2023-06-10T07:51:01;7;;;6;;
14320;SDS011;7244;47.364;8.464;2023-06-10T08:07:02;11;;;7;;
14320;SDS011;7244;47.364;8.464;2023-06-10T08:22:01;12;;;8;;
14320;SDS011;7244;47.364;8.464;2023-06-10T08:38:02;13;;;7;;
14320;SDS011;7244;47.364;8.464;2023-06-10T08:54:04;10;;;7;;
14320;SDS011;7244;47.364;8.464;2023-06-10T09:10:02;12;;;7;;
14320;SDS011;7244;47.364;8.464;2023-06-10T09:25:02;7;;;6;;
14320;SDS011;7244;47.364;8.464;2023-06-10T09:41:02;8;;;7;;
14320;SDS011;7244;47.364;8.464;2023-06-10T09:57:06;9;;;6;;
14320;SDS011;7244;47.364;8.464;2023-06-10T10:13:02;8;;;7;;
14320;SDS011;7244;47.364;8.464;2023-06-10T10:28:02;8;;;5;;
14320;SDS011;7244;47.364;8.464;2023-06-10T10:44:01;7;;;6;;
14320;SDS011;7244;47.364;8.464;2023-06-10T11:00:01;9;;;6;;
14320;SDS011;7244;47.364;8.464;2023-06-10T11:15:02;7;;;6;;
14320;SDS011;7244;47.364;8.464;2023-06-10T11:31:02;8;;;5;;
14320;SDS011;7244;47.364;8.464;2023-06-10T11:47:01;7;;;5;;
14320;SDS011;7244;47.364;8.464;2023-06-10T12:03:01;8;;;5;;
14320;SDS011;7244;47.364;8.464;2023-06-10T12:18:01;9;;;5;;
14320;SDS011;7244;47.364;8.464;2023-06-10T12:34:07;6;;;5;;
14320;SDS011;7244;47.364;8.464;2023-06-10T12:50:02;7;;;5;;
14320;SDS011;7244;47.364;8.464;2023-06-10T13:06:02;8;;;5;;
14320;SDS011;7244;47.364;8.464;2023-06-10T13:21:02;5;;;3;;
14320;SDS011;7244;47.364;8.464;2023-06-10T13:37:01;5;;;4;;
14320;SDS011;7244;47.364;8.464;2023-06-10T13:53:02;6;;;4;;
14320;SDS011;7244;47.364;8.464;2023-06-10T14:08:01;5;;;4;;
14320;SDS011;7244;47.364;8.464;2023-06-10T14:24:01;4;;;3;;
14320;SDS011;7244;47.364;8.464;2023-06-10T14:40:02;5;;;4;;
14320;SDS011;7244;47.364;8.464;2023-06-10T14:56:02;6;;;4;;
14320;SDS011;7244;47.364;8.464;2023-06-10T15:11:02;5;;;4;;
14320;SDS011;7244;47.364;8.464;2023-06-10T15:27:02;7;;;4;;
14320;SDS011;7244;47.364;8.464;2023-06-10T15:43:02;7;;;4;;
14320;SDS011;7244;47.364;8.464;2023-06-10T15:59:02;4;;;3;;
14320;SDS011;7244;47.364;8.464;2023-06-10T16:14:02;7;;;4;;
14320;SDS011;7244;47.364;8.464;2023-06-10T16:30:02;5;;;4;;
14320;SDS011;7244;47.364;8.464;2023-06-10T16:46:02;4;;;4;;
14320;SDS011;7244;47.364;8.464;2023-06-10T17:02:02;5;;;4;;
14320;SDS011;7244;47.364;8.464;2023-06-10T17:17:02;5;;;4;;
14320;SDS011;7244;47.364;8.464;2023-06-10T17:33:02;4;;;3;;
14320;SDS011;7244;47.364;8.464;2023-06-10T17:49:02;4;;;3;;
14320;SDS011;7244;47.364;8.464;2023-06-10T18:04:02;3;;;3;;
14320;SDS011;7244;47.364;8.464;2023-06-10T18:20:02;3;;;3;;
14320;SDS011;7244;47.364;8.464;2023-06-10T18:36:01;3;;;2;;
14320;SDS011;7244;47.364;8.464;2023-06-10T18:52:02;3;;;2;;
14320;SDS011;7244;47.364;8.464;2023-06-10T19:07:02;3;;;2;;
14320;SDS011;7244;47.364;8.464;2023-06-10T19:23:01;3;;;2;;
14320;SDS011;7244;47.364;8.464;2023-06-10T19:39:01;2;;;2;;
14320;SDS011;7244;47.364;8.464;2023-06-10T19:54:01;3;;;2;;
14320;SDS011;7244;47.364;8.464;2023-06-10T20:10:01;4;;;3;;
14320;SDS011;7244;47.364;8.464;2023-06-10T20:26:02;4;;;3;;
14320;SDS011;7244;47.364;8.464;2023-06-10T20:42:02;4;;;4;;
14320;SDS011;7244;47.364;8.464;2023-06-10T20:57:01;4;;;4;;
14320;SDS011;7244;47.364;8.464;2023-06-10T21:13:01;4;;;3;;
14320;SDS011;7244;47.364;8.464;2023-06-10T21:29:01;5;;;4;;
14320;SDS011;7244;47.364;8.464;2023-06-10T21:45:01;4;;;3;;
14320;SDS011;7244;47.364;8.464;2023-06-10T22:00:03;4;;;3;;
14320;SDS011;7244;47.364;8.464;2023-06-10T22:16:02;4;;;3;;
14320;SDS011;7244;47.364;8.464;2023-06-10T22:32:02;4;;;3;;
14320;SDS011;7244;47.364;8.464;2023-06-10T22:47:01;4;;;3;;
14320;SDS011;7244;47.364;8.464;2023-06-10T23:03:02;4;;;3;;
14320;SDS011;7244;47.364;8.464;2023-06-10T23:19:02;5;;;4;;
14320;SDS011;7244;47.364;8.464;2023-06-10T23:35:02;5;;;4;;
14320;SDS011;7244;47.364;8.464;2023-06-10T23:36:02;5;;;4;;
14320;SDS011;7244;47.364;8.464;2023-06-10T23:37:02;5;;;4;;
14320;SDS011;7244;47.364;8.464;2023-06-10T23:38:02;5;;;4;;
14320;SDS011;7244;47.364;8.464;2023-06-10T23:39:01;5;;;4;;
14320;SDS011;7244;47.364;8.464;2023-06-10T23:40:02;5;;;4;;
14320;SDS011;7244;47.364;8.464;2023-06-10T23:41:02;5;;;4;;
14320;SDS011;7244;47.364;8.464;2023-06-10T23:42:02;5;;;4;;
14320;SDS011;7244;47.364;8.464;2023-06-10T23:43:02;5;;;4;;
14320;SDS011;7244;47.364;8.464;2023-06-10T23:44:02;5;;;4;;
14320;SDS011;7244;47.364;8.464;2023-06-10T23:45:01;5;;;4;;
14320;SDS011;7244;47.364;8.464;2023-06-10T23:46:01;5;;;4;;
14320;SDS011;7244;47.364;8.464;2023-06-10T23:47:02;5;;;4;;
14320;SDS011;7244;47.364;8.464;2023-06-10T23:48:02;5;;;4;;
14320;SDS011;7244;47.364;8.464;2023-06-10T23:49:01;4;;;3;;
